createdAt,value
2022-08-07T00:01:12.484Z,15.89
2022-08-07T00:03:50.535Z,15.84
2022-08-07T00:06:29.273Z,15.81
2022-08-07T00:09:16.396Z,15.75
2022-08-07T00:11:55.494Z,15.70
2022-08-07T00:14:34.790Z,15.66
2022-08-07T00:17:06.716Z,15.62
2022-08-07T00:20:01.174Z,15.59
2022-08-07T00:22:35.154Z,15.56
2022-08-07T00:25:15.675Z,15.53
2022-08-07T00:27:53.323Z,15.51
2022-08-07T00:30:27.313Z,15.48
2022-08-07T00:32:58.308Z,15.45
2022-08-07T00:35:30.223Z,15.42
2022-08-07T00:37:59.334Z,15.41
2022-08-07T00:40:39.320Z,15.38
2022-08-07T00:43:59.753Z,15.34
2022-08-07T00:46:03.189Z,15.32
2022-08-07T00:48:33.493Z,15.32
2022-08-07T00:51:03.459Z,15.30
2022-08-07T00:53:39.161Z,15.29
2022-08-07T00:56:21.179Z,15.26
2022-08-07T00:58:50.102Z,15.23
2022-08-07T01:01:20.047Z,15.20
2022-08-07T01:03:56.509Z,15.16
2022-08-07T01:06:30.014Z,15.14
2022-08-07T01:09:02.843Z,15.10
2022-08-07T01:12:20.796Z,15.07
2022-08-07T01:14:32.215Z,15.04
2022-08-07T01:17:09.784Z,15.00
2022-08-07T01:19:41.925Z,14.95
2022-08-07T01:22:22.773Z,14.89
2022-08-07T01:25:00.992Z,14.84
2022-08-07T01:27:35.518Z,14.79
2022-08-07T01:30:08.966Z,14.73
2022-08-07T01:32:40.322Z,14.68
2022-08-07T01:35:17.152Z,14.63
2022-08-07T01:37:46.972Z,14.59
2022-08-07T01:40:22.240Z,14.54
2022-08-07T01:42:58.847Z,14.49
2022-08-07T01:45:37.225Z,14.45
2022-08-07T01:48:20.677Z,14.39
2022-08-07T01:52:01.032Z,14.32
2022-08-07T01:54:12.761Z,14.26
2022-08-07T01:56:54.236Z,14.22
2022-08-07T01:59:30.904Z,14.18
2022-08-07T02:02:06.697Z,14.17
2022-08-07T02:04:52.531Z,14.15
2022-08-07T02:07:45.206Z,14.14
2022-08-07T02:10:24.890Z,14.13
2022-08-07T02:12:56.033Z,14.13
2022-08-07T02:15:30.017Z,14.11
2022-08-07T02:17:59.925Z,14.08
2022-08-07T02:20:30.601Z,14.07
2022-08-07T02:23:02.443Z,14.05
2022-08-07T02:26:10.371Z,14.04
2022-08-07T02:28:24.568Z,14.01
2022-08-07T02:30:55.478Z,13.98
2022-08-07T02:33:32.837Z,13.95
2022-08-07T02:36:26.993Z,13.91
2022-08-07T02:38:59.692Z,13.90
2022-08-07T02:41:33.511Z,13.88
2022-08-07T02:44:06.963Z,13.85
2022-08-07T02:46:46.613Z,13.84
2022-08-07T02:49:56.017Z,13.81
2022-08-07T02:52:10.795Z,13.78
2022-08-07T02:54:43.134Z,13.75
2022-08-07T02:57:15.290Z,13.73
2022-08-07T02:59:54.829Z,13.71
2022-08-07T03:02:24.294Z,13.69
2022-08-07T03:04:56.438Z,13.68
2022-08-07T03:08:05.073Z,13.66
2022-08-07T03:10:17.356Z,13.64
2022-08-07T03:12:48.262Z,13.62
2022-08-07T03:15:30.150Z,13.60
2022-08-07T03:18:09.841Z,13.57
2022-08-07T03:20:47.420Z,13.52
2022-08-07T03:23:19.355Z,13.49
2022-08-07T03:25:58.371Z,13.44
2022-08-07T03:28:38.492Z,13.40
2022-08-07T03:31:23.717Z,13.38
2022-08-07T03:33:57.145Z,13.37
2022-08-07T03:36:29.746Z,13.39
2022-08-07T03:39:05.592Z,13.41
2022-08-07T03:41:42.542Z,13.42
2022-08-07T03:44:31.763Z,13.43
2022-08-07T03:47:10.812Z,13.45
2022-08-07T03:49:41.741Z,13.46
2022-08-07T03:52:22.647Z,13.45
2022-08-07T03:54:57.450Z,13.46
2022-08-07T03:58:34.691Z,13.46
2022-08-07T04:00:30.279Z,13.49
2022-08-07T04:03:03.812Z,13.52
2022-08-07T04:05:42.268Z,13.58
2022-08-07T04:08:15.887Z,13.64
2022-08-07T04:10:54.353Z,13.70
2022-08-07T04:14:10.528Z,13.78
2022-08-07T04:16:31.007Z,13.85
2022-08-07T04:19:04.095Z,13.94
2022-08-07T04:21:59.666Z,14.03
2022-08-07T04:24:38.741Z,14.14
2022-08-07T04:27:15.103Z,14.25
2022-08-07T04:30:01.390Z,14.36
2022-08-07T04:32:34.484Z,14.47
2022-08-07T04:35:11.280Z,14.58
2022-08-07T04:38:03.503Z,14.67
2022-08-07T04:40:32.225Z,14.77
2022-08-07T04:43:03.834Z,14.88
2022-08-07T04:45:57.798Z,15.01
2022-08-07T04:48:36.422Z,15.14
2022-08-07T04:51:09.263Z,15.25
2022-08-07T04:54:05.515Z,15.35
2022-08-07T04:58:13.927Z,15.45
2022-08-07T05:00:10.858Z,15.57
2022-08-07T05:02:33.207Z,15.69
2022-08-07T05:05:51.977Z,15.78
2022-08-07T05:08:03.959Z,15.88
2022-08-07T05:10:40.100Z,15.95
2022-08-07T05:14:53.515Z,16.01
2022-08-07T05:16:09.421Z,16.05
2022-08-07T05:18:47.464Z,16.07
2022-08-07T05:22:00.366Z,16.09
2022-08-07T05:24:13.162Z,16.13
2022-08-07T05:26:46.283Z,16.20
2022-08-07T05:29:18.065Z,16.27
2022-08-07T05:31:53.036Z,16.33
2022-08-07T05:34:26.166Z,16.40
2022-08-07T05:36:57.267Z,16.48
2022-08-07T05:40:16.687Z,16.59
2022-08-07T05:42:33.774Z,16.66
2022-08-07T05:45:26.231Z,16.65
2022-08-07T05:48:02.475Z,16.61
2022-08-07T05:50:33.776Z,16.61
2022-08-07T05:53:02.733Z,16.61
2022-08-07T05:56:02.023Z,16.63
2022-08-07T05:58:36.624Z,16.61
2022-08-07T06:01:10.570Z,16.62
2022-08-07T06:04:01.372Z,16.66
2022-08-07T06:06:32.607Z,16.75
2022-08-07T06:09:04.396Z,16.82
2022-08-07T06:11:34.049Z,16.84
2022-08-07T06:14:11.884Z,16.82
2022-08-07T06:16:50.700Z,16.83
2022-08-07T06:19:52.212Z,16.85
2022-08-07T06:22:23.313Z,16.87
2022-08-07T06:24:58.318Z,16.98
2022-08-07T06:27:44.279Z,17.04
2022-08-07T06:30:31.988Z,17.07
2022-08-07T06:33:17.627Z,17.10
2022-08-07T06:36:12.873Z,17.12
2022-08-07T06:38:59.353Z,17.20
2022-08-07T06:42:02.566Z,17.33
2022-08-07T06:44:31.053Z,17.45
2022-08-07T06:47:12.181Z,17.52
2022-08-07T06:49:51.807Z,17.50
2022-08-07T06:52:36.583Z,17.40
2022-08-07T06:55:32.758Z,17.37
2022-08-07T06:58:10.243Z,17.37
2022-08-07T07:00:42.394Z,17.44
2022-08-07T07:03:13.907Z,17.52
2022-08-07T07:06:02.739Z,17.56
2022-08-07T07:08:34.255Z,17.60
2022-08-07T07:11:13.994Z,17.66
2022-08-07T07:13:58.781Z,17.79
2022-08-07T07:16:49.564Z,17.89
2022-08-07T07:19:57.281Z,18.01
2022-08-07T07:22:33.852Z,18.06
2022-08-07T07:26:31.498Z,18.14
2022-08-07T07:28:03.202Z,18.25
2022-08-07T07:30:38.404Z,18.37
2022-08-07T07:33:13.511Z,18.48
2022-08-07T07:36:03.962Z,18.56
2022-08-07T07:38:38.603Z,18.63
2022-08-07T07:41:12.082Z,18.65
2022-08-07T07:43:47.863Z,18.66
2022-08-07T07:46:53.945Z,18.62
2022-08-07T07:50:35.830Z,18.69
2022-08-07T07:52:17.932Z,18.76
2022-08-07T07:54:51.265Z,18.77
2022-08-07T07:57:43.948Z,18.81
2022-08-07T08:00:15.031Z,18.87
2022-08-07T08:03:05.217Z,19.00
2022-08-07T08:05:53.655Z,19.04
2022-08-07T08:08:35.112Z,19.00
2022-08-07T08:11:16.191Z,18.96
2022-08-07T08:13:58.751Z,19.01
2022-08-07T08:16:32.328Z,19.07
2022-08-07T08:19:17.963Z,19.12
2022-08-07T08:22:17.180Z,19.17
2022-08-07T08:25:24.907Z,19.28
2022-08-07T08:28:03.482Z,19.42
2022-08-07T08:30:34.807Z,19.63
2022-08-07T08:33:10.354Z,19.70
2022-08-07T08:35:49.910Z,19.79
2022-08-07T08:38:25.904Z,19.98
2022-08-07T08:41:08.159Z,20.23
2022-08-07T08:43:58.659Z,20.45
2022-08-07T08:46:38.229Z,20.65
2022-08-07T08:49:17.186Z,20.90
2022-08-07T08:52:14.313Z,21.18
2022-08-07T08:54:52.532Z,21.37
2022-08-07T08:57:30.344Z,21.38
2022-08-07T09:00:06.305Z,21.21
2022-08-07T09:02:49.526Z,21.19
2022-08-07T09:05:36.931Z,21.34
2022-08-07T09:08:17.858Z,21.49
2022-08-07T09:11:02.913Z,21.55
2022-08-07T09:13:38.293Z,21.49
2022-08-07T09:16:23.408Z,21.56
2022-08-07T09:19:50.786Z,21.59
2022-08-07T09:24:28.153Z,21.78
2022-08-07T09:25:17.308Z,21.89
2022-08-07T09:28:04.713Z,21.97
2022-08-07T09:30:56.952Z,22.27
2022-08-07T09:33:52.639Z,22.61
2022-08-07T09:36:35.380Z,22.85
2022-08-07T09:39:53.867Z,23.01
2022-08-07T09:42:33.596Z,23.17
2022-08-07T09:47:25.943Z,23.23
2022-08-07T09:48:18.794Z,23.29
2022-08-07T09:50:56.636Z,23.48
2022-08-07T09:53:40.778Z,23.69
2022-08-07T09:56:39.386Z,23.82
2022-08-07T09:59:35.682Z,23.91
2022-08-07T10:02:33.002Z,23.90
2022-08-07T10:05:58.205Z,24.05
2022-08-07T10:08:49.586Z,24.05
2022-08-07T10:12:03.154Z,23.98
2022-08-07T10:14:41.089Z,23.90
2022-08-07T10:17:22.602Z,23.79
2022-08-07T10:20:14.518Z,23.78
2022-08-07T10:23:13.469Z,23.80
2022-08-07T10:25:57.969Z,24.02
2022-08-07T10:28:49.408Z,24.39
2022-08-07T10:31:38.973Z,24.73
2022-08-07T10:34:32.007Z,24.56
2022-08-07T10:37:14.161Z,24.55
2022-08-07T10:40:02.595Z,24.65
2022-08-07T10:42:38.704Z,24.74
2022-08-07T10:45:45.083Z,24.86
2022-08-07T10:48:21.893Z,24.85
2022-08-07T10:50:54.945Z,24.75
2022-08-07T10:53:44.496Z,24.99
2022-08-07T10:56:31.398Z,25.17
2022-08-07T10:59:13.486Z,25.38
2022-08-07T11:02:04.889Z,25.74
2022-08-07T11:04:55.464Z,26.07
2022-08-07T11:07:59.277Z,26.09
2022-08-07T11:10:20.206Z,25.89
2022-08-07T11:13:04.827Z,25.79
2022-08-07T11:15:40.161Z,26.07
2022-08-07T11:18:20.443Z,26.36
2022-08-07T11:20:59.561Z,26.28
2022-08-07T11:23:38.514Z,26.49
2022-08-07T11:26:16.890Z,26.72
2022-08-07T11:28:55.257Z,26.83
2022-08-07T11:31:35.288Z,26.82
2022-08-07T11:34:16.489Z,26.66
2022-08-07T11:37:00.479Z,26.82
2022-08-07T11:40:00.036Z,27.06
2022-08-07T11:42:40.137Z,26.99
2022-08-07T11:45:20.715Z,27.04
2022-08-07T11:48:29.365Z,27.37
2022-08-07T11:51:41.434Z,27.34
2022-08-07T11:54:31.125Z,27.06
2022-08-07T11:57:15.935Z,27.33
2022-08-07T12:00:19.231Z,27.74
2022-08-07T12:03:03.420Z,28.10
2022-08-07T12:05:49.560Z,28.46
2022-08-07T12:08:31.884Z,28.65
2022-08-07T12:11:21.119Z,28.33
2022-08-07T12:13:59.346Z,28.37
2022-08-07T12:16:41.463Z,28.33
2022-08-07T12:19:22.068Z,28.46
2022-08-07T12:22:38.781Z,28.18
2022-08-07T12:26:05.882Z,28.21
2022-08-07T12:28:31.099Z,28.46
2022-08-07T12:31:09.349Z,28.47
2022-08-07T12:34:01.405Z,28.41
2022-08-07T12:36:50.156Z,28.41
2022-08-07T12:39:43.833Z,27.97
2022-08-07T12:42:32.124Z,27.37
2022-08-07T12:45:14.534Z,26.98
2022-08-07T12:47:50.284Z,26.55
2022-08-07T12:50:39.080Z,26.43
2022-08-07T12:53:22.213Z,26.69
2022-08-07T12:56:03.973Z,27.16
2022-08-07T12:58:39.931Z,27.93
2022-08-07T13:01:37.397Z,28.37
2022-08-07T13:04:32.634Z,28.88
2022-08-07T13:08:12.459Z,29.62
2022-08-07T13:10:40.854Z,29.79
2022-08-07T13:13:46.790Z,29.99
2022-08-07T13:16:22.036Z,30.32
2022-08-07T13:19:01.928Z,30.21
2022-08-07T13:21:51.153Z,29.74
2022-08-07T13:24:29.358Z,28.76
2022-08-07T13:27:09.020Z,27.99
2022-08-07T13:29:46.887Z,27.55
2022-08-07T13:32:32.704Z,27.35
2022-08-07T13:35:10.076Z,27.45
2022-08-07T13:37:59.131Z,27.60
2022-08-07T13:40:35.645Z,27.51
2022-08-07T13:43:13.449Z,27.40
2022-08-07T13:46:16.372Z,27.75
2022-08-07T13:48:38.951Z,28.27
2022-08-07T13:51:26.936Z,28.27
2022-08-07T13:54:03.713Z,27.84
2022-08-07T13:56:41.351Z,27.64
2022-08-07T13:59:30.711Z,28.05
2022-08-07T14:02:08.627Z,28.61
2022-08-07T14:04:54.582Z,28.81
2022-08-07T14:07:29.193Z,29.13
2022-08-07T14:10:16.288Z,29.36
2022-08-07T14:12:55.768Z,29.34
2022-08-07T14:15:43.705Z,28.87
2022-08-07T14:18:29.351Z,28.37
2022-08-07T14:21:08.183Z,28.20
2022-08-07T14:24:01.218Z,28.13
2022-08-07T14:26:40.515Z,28.05
2022-08-07T14:30:05.757Z,27.91
2022-08-07T14:32:09.084Z,28.12
2022-08-07T14:34:47.002Z,28.71
2022-08-07T14:37:19.303Z,29.51
2022-08-07T14:40:18.099Z,30.07
2022-08-07T14:43:01.399Z,30.28
2022-08-07T14:45:46.591Z,29.94
2022-08-07T14:48:36.107Z,29.48
2022-08-07T14:51:16.315Z,29.27
2022-08-07T14:56:43.729Z,28.71
2022-08-07T15:07:58.519Z,27.65
2022-08-07T15:10:30.074Z,27.44
2022-08-07T15:13:11.660Z,27.23
2022-08-07T15:15:52.684Z,26.98
2022-08-07T15:18:35.853Z,27.27
2022-08-07T15:21:44.086Z,27.93
2022-08-07T15:25:15.717Z,28.47
2022-08-07T15:26:57.583Z,28.86
2022-08-07T15:32:40.109Z,28.74
2022-08-07T15:35:19.122Z,28.39
2022-08-07T15:38:29.775Z,28.04
2022-08-07T15:41:23.019Z,27.33
2022-08-07T15:43:59.323Z,26.86
2022-08-07T15:46:32.096Z,26.81
2022-08-07T15:49:15.321Z,26.96
2022-08-07T15:54:34.574Z,27.63
2022-08-07T15:57:39.352Z,27.78
2022-08-07T16:00:04.425Z,28.03
2022-08-07T16:02:40.335Z,28.04
2022-08-07T16:05:15.381Z,28.08
2022-08-07T16:08:33.056Z,28.22
2022-08-07T16:10:40.318Z,28.38
2022-08-07T16:13:58.594Z,28.76
2022-08-07T16:16:43.389Z,28.73
2022-08-07T16:19:58.629Z,28.48
2022-08-07T16:22:55.301Z,28.38
2022-08-07T16:25:54.117Z,28.44
2022-08-07T16:30:08.698Z,28.20
2022-08-07T16:31:51.045Z,28.20
2022-08-07T16:34:48.920Z,28.37
2022-08-07T16:38:04.364Z,28.17
2022-08-07T16:41:02.282Z,28.24
2022-08-07T16:44:04.343Z,28.27
2022-08-07T16:47:07.583Z,27.99
2022-08-07T16:50:20.355Z,27.75
2022-08-07T16:54:01.236Z,27.82
2022-08-07T16:56:37.348Z,27.64
2022-08-07T16:59:15.131Z,27.20
2022-08-07T17:02:03.487Z,26.92
2022-08-07T17:04:50.975Z,26.61
2022-08-07T17:07:55.695Z,26.06
2022-08-07T17:10:32.425Z,25.67
2022-08-07T17:13:24.879Z,25.40
2022-08-07T17:16:17.771Z,25.23
2022-08-07T17:18:57.521Z,25.02
2022-08-07T17:21:51.267Z,24.77
2022-08-07T17:24:41.233Z,24.54
2022-08-07T17:27:20.087Z,24.33
2022-08-07T17:30:16.193Z,24.21
2022-08-07T17:33:02.682Z,24.03
2022-08-07T17:35:50.323Z,23.83
2022-08-07T17:38:34.172Z,23.66
2022-08-07T17:41:30.589Z,23.57
2022-08-07T17:44:03.221Z,23.46
2022-08-07T17:46:43.429Z,23.31
2022-08-07T17:49:23.061Z,23.20
2022-08-07T17:52:02.304Z,23.08
2022-08-07T17:54:53.271Z,22.97
2022-08-07T17:57:58.812Z,22.83
2022-08-07T18:00:33.180Z,22.70
2022-08-07T18:03:18.448Z,22.59
2022-08-07T18:06:01.303Z,22.49
2022-08-07T18:12:07.375Z,22.27
2022-08-07T18:14:37.691Z,22.15
2022-08-07T18:18:45.212Z,22.03
2022-08-07T18:21:03.630Z,21.92
2022-08-07T18:23:06.187Z,21.81
2022-08-07T18:26:01.675Z,21.69
2022-08-07T18:28:58.299Z,21.59
2022-08-07T18:31:38.889Z,21.49
2022-08-07T18:34:34.810Z,21.38
2022-08-07T18:38:57.524Z,21.25
2022-08-07T18:40:42.434Z,21.12
2022-08-07T18:43:14.967Z,20.99
2022-08-07T18:46:25.206Z,20.88
2022-08-07T18:50:05.649Z,20.75
2022-08-07T18:52:38.048Z,20.63
2022-08-07T18:54:37.287Z,20.53
2022-08-07T18:57:30.579Z,20.42
2022-08-07T19:00:34.199Z,20.31
2022-08-07T19:03:02.065Z,20.20
2022-08-07T19:06:03.867Z,20.12
2022-08-07T19:08:27.553Z,20.01
2022-08-07T19:11:01.957Z,19.91
2022-08-07T19:14:01.831Z,19.80
2022-08-07T19:17:04.665Z,19.71
2022-08-07T19:19:38.452Z,19.61
2022-08-07T19:22:30.990Z,19.52
2022-08-07T19:25:06.711Z,19.42
2022-08-07T19:28:57.600Z,19.35
2022-08-07T19:31:03.015Z,19.27
2022-08-07T19:33:33.630Z,19.20
2022-08-07T19:36:05.388Z,19.14
2022-08-07T19:38:53.380Z,19.09
2022-08-07T19:41:44.160Z,19.02
2022-08-07T19:44:21.988Z,18.95
2022-08-07T19:46:55.868Z,18.91
2022-08-07T19:49:58.454Z,18.85
2022-08-07T19:52:19.262Z,18.74
2022-08-07T19:54:56.300Z,18.66
2022-08-07T19:58:02.492Z,18.59
2022-08-07T20:00:28.186Z,18.51
2022-08-07T20:03:03.389Z,18.43
2022-08-07T20:05:59.594Z,18.38
2022-08-07T20:08:25.266Z,18.34
2022-08-07T20:11:03.579Z,18.30
2022-08-07T20:13:42.597Z,18.25
2022-08-07T20:16:32.275Z,18.20
2022-08-07T20:19:10.514Z,18.16
2022-08-07T20:21:47.463Z,18.12
2022-08-07T20:24:21.072Z,18.07
2022-08-07T20:26:52.257Z,18.03
2022-08-07T20:29:49.493Z,17.99
2022-08-07T20:32:23.044Z,17.95
2022-08-07T20:34:56.883Z,17.91
2022-08-07T20:37:29.724Z,17.87
2022-08-07T20:40:05.094Z,17.82
2022-08-07T20:42:56.208Z,17.77
2022-08-07T20:46:24.470Z,17.73
2022-08-07T20:48:29.051Z,17.68
2022-08-07T20:51:01.355Z,17.63
2022-08-07T20:54:01.946Z,17.58
2022-08-07T20:56:26.187Z,17.54
2022-08-07T20:58:58.557Z,17.50
2022-08-07T21:01:29.549Z,17.46
2022-08-07T21:04:22.091Z,17.41
2022-08-07T21:06:56.832Z,17.36
2022-08-07T21:09:52.096Z,17.32
2022-08-07T21:12:25.991Z,17.28
2022-08-07T21:15:01.194Z,17.23
2022-08-07T21:18:01.877Z,17.18
2022-08-07T21:20:56.458Z,17.14
2022-08-07T21:23:49.409Z,17.09
2022-08-07T21:26:35.031Z,17.05
2022-08-07T21:29:15.734Z,17.00
2022-08-07T21:32:43.188Z,16.95
2022-08-07T21:34:48.367Z,16.90
2022-08-07T21:37:22.599Z,16.83
2022-08-07T21:39:56.653Z,16.78
2022-08-07T21:42:46.737Z,16.75
2022-08-07T21:46:10.418Z,16.71
2022-08-07T21:48:28.261Z,16.68
2022-08-07T21:51:05.372Z,16.66
2022-08-07T21:53:37.084Z,16.64
2022-08-07T21:56:39.673Z,16.60
2022-08-07T21:59:16.126Z,16.57
2022-08-07T22:02:11.282Z,16.53
2022-08-07T22:04:53.608Z,16.50
2022-08-07T22:07:31.636Z,16.48
2022-08-07T22:10:19.549Z,16.45
2022-08-07T22:12:54.144Z,16.43
2022-08-07T22:16:39.161Z,16.37
2022-08-07T22:18:19.346Z,16.27
2022-08-07T22:20:52.779Z,16.20
2022-08-07T22:23:27.287Z,16.20
2022-08-07T22:26:05.976Z,16.21
2022-08-07T22:28:48.308Z,16.22
2022-08-07T22:31:45.629Z,16.23
2022-08-07T22:34:28.882Z,16.24
2022-08-07T22:37:12.504Z,16.24
2022-08-07T22:39:52.736Z,16.23
2022-08-07T22:42:29.384Z,16.22
2022-08-07T22:45:02.422Z,16.20
2022-08-07T22:47:49.364Z,16.17
2022-08-07T22:50:49.546Z,16.14
2022-08-07T22:54:07.528Z,16.12
2022-08-07T22:56:24.288Z,16.10
2022-08-07T22:59:32.434Z,16.08
2022-08-07T23:02:11.885Z,16.04
2022-08-07T23:06:09.663Z,16.02
2022-08-07T23:07:58.106Z,16.00
2022-08-07T23:10:41.879Z,15.98
2022-08-07T23:13:48.345Z,15.95
2022-08-07T23:16:46.704Z,15.92
2022-08-07T23:19:52.185Z,15.88
2022-08-07T23:22:39.170Z,15.87
2022-08-07T23:25:21.062Z,15.86
2022-08-07T23:28:21.791Z,15.85
2022-08-07T23:31:13.826Z,15.83
2022-08-07T23:34:37.768Z,15.83
2022-08-07T23:37:25.022Z,15.82
2022-08-07T23:40:08.393Z,15.81
2022-08-07T23:42:49.679Z,15.80
2022-08-07T23:46:01.991Z,15.79
2022-08-07T23:48:33.970Z,15.78
2022-08-07T23:51:12.284Z,15.75
2022-08-07T23:53:59.330Z,15.71
2022-08-07T23:56:38.775Z,15.69
